Time;durP1;ratioP1;P1;durP2;ratioP2;P2;SDS_P1;SDS_P2;PMS_P1;PMS_P2;Temp;Humidity;BMP_temperature;BMP_pressure;BME280_temperature;BME280_humidity;BME280_pressure;Samples;Min_cycle;Max_cycle;Signal;HPM_P1;HPM_P2
2023/05/12 00:00:05;;;;;;;0.60;0.60;;;10.20;99.90;;;;;;5090886;28;20101;-72
2023/05/12 00:02:30;;;;;;;10.88;1.38;;;10.50;99.90;;;;;;5091901;28;20393;-70
2023/05/12 00:04:56;;;;;;;1.63;0.70;;;11.70;99.90;;;;;;5091924;28;20065;-70
2023/05/12 00:07:22;;;;;;;0.73;0.73;;;11.30;99.90;;;;;;5091781;28;20080;-71
2023/05/12 00:09:48;;;;;;;1.25;1.17;;;12.00;99.90;;;;;;5090901;28;20483;-71
2023/05/12 00:12:13;;;;;;;1.85;1.25;;;12.10;99.90;;;;;;5092017;28;20044;-70
2023/05/12 00:14:39;;;;;;;5.78;1.00;;;11.80;99.90;;;;;;5091903;28;20051;-72
2023/05/12 00:17:05;;;;;;;1.55;1.30;;;9.80;99.90;;;;;;5091821;28;20052;-73
2023/05/12 00:19:35;;;;;;;;;;;10.60;99.90;;;;;;5092102;28;20052;-72
2023/05/12 00:22:01;;;;;;;0.75;0.75;;;11.90;99.90;;;;;;5091638;28;19920;-71
2023/05/12 00:24:27;;;;;;;0.57;0.57;;;10.00;99.90;;;;;;5090845;28;20121;-73
2023/05/12 00:26:53;;;;;;;0.68;0.68;;;9.50;99.90;;;;;;5091793;28;20047;-73
2023/05/12 00:29:19;;;;;;;0.77;0.68;;;9.40;99.90;;;;;;5091774;28;20392;-74
2023/05/12 00:31:44;;;;;;;2.08;1.33;;;10.00;99.90;;;;;;5091611;28;20089;-72
2023/05/12 00:34:10;;;;;;;0.65;0.65;;;9.80;99.90;;;;;;5093937;28;20471;-76
2023/05/12 00:36:36;;;;;;;0.73;0.68;;;11.80;99.90;;;;;;5095517;28;20131;-74
2023/05/12 00:39:02;;;;;;;0.88;0.82;;;11.40;99.90;;;;;;5095798;28;20530;-75
2023/05/12 00:41:28;;;;;;;;;;;11.80;99.90;;;;;;5096360;28;20055;-76
2023/05/12 00:43:53;;;;;;;0.73;0.73;;;11.40;99.90;;;;;;5095858;28;19923;-72
2023/05/12 00:46:20;;;;;;;3.58;2.10;;;9.80;99.90;;;;;;5095366;28;20056;-74
2023/05/12 00:48:46;;;;;;;0.57;0.57;;;10.20;99.90;;;;;;5094259;28;20397;-75
2023/05/12 00:51:12;;;;;;;0.80;0.80;;;12.10;99.90;;;;;;5094984;28;20070;-75
2023/05/12 00:53:38;;;;;;;1.20;1.20;;;10.30;99.90;;;;;;5095420;28;20119;-72
2023/05/12 00:56:04;;;;;;;0.60;0.60;;;11.80;99.90;;;;;;5095339;28;20048;-74
2023/05/12 00:58:31;;;;;;;0.70;0.70;;;11.30;99.90;;;;;;5095116;28;20047;-75
2023/05/12 01:00:56;;;;;;;;;;;11.60;99.90;;;;;;5095486;28;20131;-75
2023/05/12 01:03:22;;;;;;;0.82;0.82;;;12.30;99.90;;;;;;5094985;28;19967;-75
2023/05/12 01:05:55;;;;;;;1.13;1.10;;;10.20;99.90;;;;;;5093815;28;20399;-75
2023/05/12 01:08:22;;;;;;;0.98;0.90;;;9.80;99.90;;;;;;5095119;28;20113;-75
2023/05/12 01:10:48;;;;;;;0.73;0.73;;;10.60;99.90;;;;;;5093838;28;20051;-74
2023/05/12 01:13:13;;;;;;;0.85;0.73;;;12.00;99.90;;;;;;5094903;28;20131;-74
2023/05/12 01:15:46;;;;;;;1.48;1.38;;;11.30;99.90;;;;;;5094773;28;20048;-74
2023/05/12 01:18:14;;;;;;;1.25;0.50;;;11.70;99.90;;;;;;5094601;28;20059;-74
2023/05/12 01:20:41;;;;;;;1.33;1.13;;;12.50;99.90;;;;;;5094725;28;20054;-73
2023/05/12 01:23:08;;;;;;;0.35;0.35;;;11.40;99.90;;;;;;5094702;28;20101;-73
2023/05/12 01:25:36;;;;;;;2.15;1.95;;;10.20;99.90;;;;;;5093569;28;20083;-74
2023/05/12 01:28:03;;;;;;;1.17;0.82;;;11.20;99.90;;;;;;5094538;28;20071;-74
2023/05/12 01:30:29;;;;;;;1.77;1.00;;;10.70;99.90;;;;;;5094363;28;20079;-72
2023/05/12 01:32:55;;;;;;;1.67;0.90;;;12.60;99.90;;;;;;5094273;28;20048;-73
2023/05/12 01:35:20;;;;;;;0.35;0.35;;;10.50;99.90;;;;;;5093176;28;20407;-74
2023/05/12 01:37:46;;;;;;;0.70;0.70;;;12.40;99.90;;;;;;5094487;28;20040;-73
2023/05/12 01:40:12;;;;;;;0.65;0.65;;;10.00;99.90;;;;;;5093163;28;20187;-72
2023/05/12 01:42:40;;;;;;;1.27;1.17;;;10.70;99.90;;;;;;5094318;28;20048;-72
2023/05/12 01:45:06;;;;;;;0.77;0.77;;;10.50;99.90;;;;;;5093785;28;20070;-73
2023/05/12 01:47:32;;;;;;;0.63;0.63;;;12.40;99.90;;;;;;5094001;28;20048;-74
2023/05/12 01:49:57;;;;;;;0.85;0.85;;;11.30;99.90;;;;;;5094281;28;20055;-72
2023/05/12 01:52:24;;;;;;;1.45;1.35;;;12.20;99.90;;;;;;5093993;28;20480;-73
2023/05/12 01:54:50;;;;;;;;;;;12.20;99.90;;;;;;5094467;28;20134;-74
2023/05/12 01:57:16;;;;;;;1.92;1.38;;;12.40;99.90;;;;;;5094071;28;19920;-73
2023/05/12 01:59:42;;;;;;;;;;;10.30;99.90;;;;;;5094317;28;20048;-73
2023/05/12 02:02:07;;;;;;;1.48;0.95;;;11.00;99.90;;;;;;5093735;28;19950;-74
2023/05/12 02:04:33;;;;;;;1.50;1.40;;;12.30;99.90;;;;;;5093905;28;20399;-72
2023/05/12 02:07:00;;;;;;;3.08;0.98;;;12.90;99.90;;;;;;5092611;28;20051;-72
2023/05/12 02:09:26;;;;;;;1.52;1.25;;;11.40;99.90;;;;;;5093729;28;20131;-72
2023/05/12 02:11:52;;;;;;;2.28;1.55;;;10.20;99.90;;;;;;5093679;28;20119;-73
2023/05/12 02:14:18;;;;;;;1.52;1.02;;;9.90;99.90;;;;;;5093559;28;20066;-73
2023/05/12 02:16:47;;;;;;;1.27;1.05;;;12.60;99.90;;;;;;5092453;28;20047;-72
2023/05/12 02:19:13;;;;;;;1.38;1.30;;;12.80;99.90;;;;;;5093676;28;20047;-71
2023/05/12 02:21:38;;;;;;;1.33;1.23;;;12.20;99.90;;;;;;5093606;28;20484;-72
2023/05/12 02:24:04;;;;;;;2.80;1.70;;;10.40;99.90;;;;;;5092409;28;20092;-71
2023/05/12 02:26:30;;;;;;;1.77;1.63;;;10.00;99.90;;;;;;5093425;28;20570;-72
2023/05/12 02:28:56;;;;;;;2.22;2.03;;;10.50;99.90;;;;;;5093295;28;20149;-71
2023/05/12 02:31:22;;;;;;;1.95;1.38;;;10.30;99.90;;;;;;5093183;28;20420;-74
2023/05/12 02:33:49;;;;;;;0.82;0.82;;;10.50;99.90;;;;;;5093564;28;20055;-72
2023/05/12 02:36:15;;;;;;;1.05;0.90;;;11.00;99.90;;;;;;5093624;28;20052;-71
2023/05/12 02:38:41;;;;;;;2.75;1.80;;;9.90;99.90;;;;;;5093294;28;20051;-72
2023/05/12 02:41:06;;;;;;;1.75;1.50;;;10.70;99.90;;;;;;5093164;28;20047;-73
2023/05/12 02:43:32;;;;;;;0.47;0.47;;;12.00;99.90;;;;;;5092965;28;20050;-72
2023/05/12 02:45:58;;;;;;;0.80;0.80;;;10.30;99.90;;;;;;5093232;28;20044;-71
2023/05/12 02:48:23;;;;;;;2.40;1.52;;;12.70;99.90;;;;;;5093161;28;20341;-71
2023/05/12 02:50:49;;;;;;;8.00;2.90;;;10.50;99.90;;;;;;5091531;28;20078;-70
2023/05/12 02:53:15;;;;;;;2.70;2.50;;;10.70;99.90;;;;;;5092930;28;20499;-71
2023/05/12 02:55:41;;;;;;;6.00;1.88;;;11.00;99.90;;;;;;5091132;28;20048;-72
2023/05/12 02:58:07;;;;;;;0.98;0.98;;;12.90;99.90;;;;;;5092762;28;20084;-72
2023/05/12 03:00:32;;;;;;;1.92;1.60;;;12.80;99.90;;;;;;5092659;28;20044;-71
2023/05/12 03:02:58;;;;;;;4.70;1.88;;;10.70;99.90;;;;;;5092836;28;20082;-71
2023/05/12 03:05:24;;;;;;;1.52;1.42;;;10.10;99.90;;;;;;5092686;28;20044;-72
2023/05/12 03:07:49;;;;;;;2.10;0.98;;;12.00;99.90;;;;;;5092520;28;20044;-72
2023/05/12 03:10:17;;;;;;;5.07;1.30;;;12.20;99.90;;;;;;5091288;28;20083;-73
2023/05/12 03:12:42;;;;;;;1.45;1.35;;;11.50;99.90;;;;;;5092380;28;20101;-72
2023/05/12 03:15:08;;;;;;;5.47;1.48;;;12.00;99.90;;;;;;5092606;28;20048;-71
2023/05/12 03:17:35;;;;;;;2.33;2.20;;;12.90;99.90;;;;;;5092601;28;20139;-72
2023/05/12 03:20:02;;;;;;;1.23;1.13;;;12.40;99.90;;;;;;5092515;28;20048;-72
2023/05/12 03:22:28;;;;;;;2.65;1.05;;;10.40;99.90;;;;;;5092399;28;20059;-73
2023/05/12 03:24:53;;;;;;;1.92;1.10;;;12.60;99.90;;;;;;5092320;28;20483;-72
2023/05/12 03:27:19;;;;;;;13.70;1.45;;;10.10;99.90;;;;;;5092170;28;20044;-73
2023/05/12 03:29:45;;;;;;;0.73;0.73;;;12.70;99.90;;;;;;5091419;28;20048;-73
2023/05/12 03:32:11;;;;;;;6.80;1.98;;;10.20;99.90;;;;;;5092353;28;20510;-72
2023/05/12 03:34:37;;;;;;;1.48;1.25;;;12.80;99.90;;;;;;5092291;28;20047;-73
2023/05/12 03:37:03;;;;;;;5.32;1.65;;;10.10;99.90;;;;;;5091091;28;20076;-74
2023/05/12 03:39:28;;;;;;;2.22;2.03;;;11.80;99.90;;;;;;5092120;28;20040;-74
2023/05/12 03:41:54;;;;;;;24.42;2.58;;;12.40;99.90;;;;;;5074103;28;20102;-73
2023/05/12 03:44:20;;;;;;;2.70;1.02;;;12.90;99.90;;;;;;5090623;28;20051;-73
2023/05/12 03:46:45;;;;;;;5.53;3.15;;;10.50;99.90;;;;;;5092115;28;20071;-73
2023/05/12 03:49:11;;;;;;;1.40;1.27;;;10.60;99.90;;;;;;5092083;28;20052;-78
2023/05/12 03:51:37;;;;;;;0.60;0.60;;;12.20;99.90;;;;;;5091499;28;20606;-74
2023/05/12 03:54:03;;;;;;;4.20;1.42;;;12.60;99.90;;;;;;5091851;28;20561;-74
2023/05/12 03:56:29;;;;;;;1.48;1.38;;;10.50;99.90;;;;;;5091888;28;20094;-75
2023/05/12 03:58:55;;;;;;;1.67;1.02;;;10.20;99.90;;;;;;5090518;28;20261;-75
2023/05/12 04:01:21;;;;;;;3.33;1.73;;;11.20;99.90;;;;;;5092063;28;20627;-75
2023/05/12 04:03:47;;;;;;;2.22;1.30;;;13.10;99.90;;;;;;5091918;28;20057;-74
2023/05/12 04:06:13;;;;;;;0.57;0.57;;;10.00;99.90;;;;;;5091847;28;20052;-75
2023/05/12 04:08:38;;;;;;;2.22;1.83;;;12.30;99.90;;;;;;5095054;28;20048;-75
2023/05/12 04:11:04;;;;;;;2.55;1.50;;;11.90;99.90;;;;;;5095838;28;20080;-75
2023/05/12 04:13:30;;;;;;;1.45;1.35;;;10.90;99.90;;;;;;5095791;28;20040;-75
2023/05/12 04:15:57;;;;;;;10.38;2.17;;;12.70;99.90;;;;;;5096052;28;20377;-75
2023/05/12 04:18:24;;;;;;;1.45;1.17;;;11.10;99.90;;;;;;5095963;28;20071;-74
2023/05/12 04:20:50;;;;;;;5.38;3.55;;;10.00;99.90;;;;;;5094547;28;20449;-74
2023/05/12 04:23:16;;;;;;;4.38;2.95;;;12.50;99.90;;;;;;5095790;28;20044;-73
2023/05/12 04:25:42;;;;;;;1.60;1.55;;;13.30;99.90;;;;;;5095699;28;20074;-74
2023/05/12 04:28:08;;;;;;;;;;;11.80;99.90;;;;;;5095053;28;20503;-74
2023/05/12 04:30:34;;;;;;;0.85;0.80;;;10.90;99.90;;;;;;5095756;28;20432;-74
2023/05/12 04:33:00;;;;;;;0.75;0.75;;;13.20;99.90;;;;;;5095853;28;20040;-75
2023/05/12 04:35:26;;;;;;;1.25;1.15;;;12.40;99.90;;;;;;5094615;28;20051;-79
2023/05/12 04:37:52;;;;;;;;;;;13.30;99.90;;;;;;5095963;28;20055;-75
2023/05/12 04:40:18;;;;;;;3.13;2.83;;;12.60;99.90;;;;;;5095418;28;19924;-75
2023/05/12 04:42:43;;;;;;;4.80;1.75;;;13.20;99.90;;;;;;5094264;28;20396;-75
2023/05/12 04:45:09;;;;;;;18.15;2.28;;;10.40;99.90;;;;;;5095548;28;20130;-75
2023/05/12 04:47:35;;;;;;;1.05;1.05;;;11.70;99.90;;;;;;5095399;28;20165;-75
2023/05/12 04:50:01;;;;;;;2.55;1.75;;;11.30;99.90;;;;;;5095346;28;20085;-74
2023/05/12 04:52:27;;;;;;;0.98;0.98;;;13.10;99.90;;;;;;5094888;28;20056;-74
2023/05/12 04:54:53;;;;;;;1.35;1.27;;;10.80;99.90;;;;;;5094032;28;20054;-74
2023/05/12 04:57:18;;;;;;;1.85;0.90;;;12.80;99.90;;;;;;5094886;28;20052;-75
2023/05/12 04:59:44;;;;;;;0.85;0.85;;;10.90;99.90;;;;;;5094111;28;20044;-75
2023/05/12 05:02:10;;;;;;;1.83;1.73;;;12.90;99.90;;;;;;5095086;28;20396;-74
2023/05/12 05:04:36;;;;;;;;;;;13.10;99.90;;;;;;5095379;28;20044;-74
2023/05/12 05:07:02;;;;;;;1.15;0.98;;;13.50;99.90;;;;;;5093884;28;19927;-73
2023/05/12 05:09:28;;;;;;;2.97;1.80;;;10.80;99.90;;;;;;5094808;28;20048;-75
2023/05/12 05:11:54;;;;;;;1.67;1.20;;;11.00;99.90;;;;;;5094755;28;20096;-74
2023/05/12 05:14:19;;;;;;;1.67;1.58;;;12.90;99.90;;;;;;5095161;28;20481;-75
2023/05/12 05:16:45;;;;;;;1.88;1.08;;;11.20;99.90;;;;;;5094870;28;20066;-74
2023/05/12 05:19:12;;;;;;;2.70;1.92;;;11.20;99.90;;;;;;5092885;28;20048;-74
2023/05/12 05:21:38;;;;;;;1.70;1.27;;;13.20;99.90;;;;;;5094628;28;20051;-72
2023/05/12 05:24:04;;;;;;;2.05;1.08;;;12.00;99.90;;;;;;5094568;28;20464;-74
2023/05/12 05:26:30;;;;;;;;;;;11.40;99.90;;;;;;5094813;28;20547;-74
2023/05/12 05:28:55;;;;;;;6.65;3.88;;;11.10;99.90;;;;;;5094660;28;20018;-75
2023/05/12 05:31:21;;;;;;;1.98;1.10;;;14.20;99.90;;;;;;5094489;28;20484;-72
2023/05/12 05:33:47;;;;;;;1.88;1.58;;;11.70;99.90;;;;;;5093485;28;20116;-74
2023/05/12 05:36:13;;;;;;;2.88;2.17;;;11.50;99.90;;;;;;5094400;28;20113;-74
2023/05/12 05:38:38;;;;;;;2.20;1.02;;;12.30;99.90;;;;;;5094377;28;20044;-73
2023/05/12 05:41:05;;;;;;;0.82;0.82;;;12.50;99.90;;;;;;5094171;28;20040;-76
2023/05/12 05:43:31;;;;;;;2.38;1.48;;;14.20;99.90;;;;;;5094471;28;20043;-73
2023/05/12 05:45:57;;;;;;;5.07;1.95;;;11.80;99.90;;;;;;5094322;28;20126;-74
2023/05/12 05:48:23;;;;;;;3.20;1.55;;;13.10;99.90;;;;;;5094199;28;20551;-75
2023/05/12 05:50:52;;;;;;;3.40;1.52;;;13.30;99.90;;;;;;5093962;28;20047;-75
2023/05/12 05:53:19;;;;;;;3.13;1.65;;;12.60;99.90;;;;;;5093728;28;20063;-73
2023/05/12 05:55:46;;;;;;;1.13;1.02;;;13.90;99.90;;;;;;5093862;28;20051;-73
2023/05/12 05:58:12;;;;;;;3.38;2.25;;;12.70;99.90;;;;;;5094029;28;20052;-73
2023/05/12 06:00:37;;;;;;;2.22;1.52;;;13.10;99.90;;;;;;5094072;28;20070;-73
2023/05/12 06:03:03;;;;;;;0.88;0.88;;;14.20;99.90;;;;;;5093827;28;20048;-73
2023/05/12 06:05:29;;;;;;;3.38;3.17;;;12.30;99.90;;;;;;5092656;28;20135;-73
2023/05/12 06:07:54;;;;;;;3.80;1.63;;;12.40;99.90;;;;;;5093581;28;20454;-72
2023/05/12 06:10:20;;;;;;;2.10;0.90;;;12.30;99.90;;;;;;5093942;28;20048;-75
2023/05/12 06:12:46;;;;;;;2.17;1.67;;;14.20;99.90;;;;;;5093750;28;20052;-73
2023/05/12 06:15:12;;;;;;;;;;;13.70;99.90;;;;;;5092961;28;20510;-73
2023/05/12 06:17:38;;;;;;;2.50;1.33;;;14.10;99.90;;;;;;5093686;28;20046;-73
2023/05/12 06:20:05;;;;;;;;;;;14.60;99.90;;;;;;5093905;28;20052;-73
2023/05/12 06:22:31;;;;;;;2.75;1.17;;;13.30;99.90;;;;;;5093415;28;19920;-72
2023/05/12 06:24:57;;;;;;;4.03;1.73;;;14.00;99.90;;;;;;5093643;28;20135;-72
2023/05/12 06:27:23;;;;;;;1.35;1.17;;;12.60;99.90;;;;;;5093800;28;20234;-73
2023/05/12 06:29:50;;;;;;;0.80;0.80;;;12.90;99.90;;;;;;5092399;28;20055;-72
2023/05/12 06:32:16;;;;;;;2.15;0.95;;;12.70;99.90;;;;;;5092325;28;20047;-72
2023/05/12 06:34:41;;;;;;;0.80;0.80;;;12.60;99.90;;;;;;5093234;28;20414;-71
2023/05/12 06:37:07;;;;;;;;;;;12.80;99.90;;;;;;5092295;28;20036;-73
2023/05/12 06:39:32;;;;;;;1.55;1.30;;;13.80;99.90;;;;;;5093079;28;19963;-72
2023/05/12 06:41:58;;;;;;;2.33;1.33;;;14.80;99.90;;;;;;5093310;28;20051;-71
2023/05/12 06:44:24;;;;;;;2.13;1.65;;;12.60;99.90;;;;;;5093215;28;20047;-73
2023/05/12 06:46:49;;;;;;;;;;;12.30;99.90;;;;;;5093524;28;20120;-72
2023/05/12 06:49:15;;;;;;;0.75;0.75;;;12.40;99.90;;;;;;5092967;28;19919;-72
2023/05/12 06:51:41;;;;;;;;;;;14.50;99.90;;;;;;5093196;28;20510;-72
2023/05/12 06:54:07;;;;;;;1.65;1.33;;;12.50;99.90;;;;;;5092782;28;19946;-72
2023/05/12 06:56:32;;;;;;;0.95;0.95;;;12.20;99.90;;;;;;5093077;28;20385;-72
2023/05/12 06:59:00;;;;;;;2.88;1.75;;;13.80;99.90;;;;;;5092962;28;20047;-72
2023/05/12 07:01:27;;;;;;;1.15;0.98;;;16.60;99.90;;;;;;5092818;28;20054;-73
2023/05/12 07:03:53;;;;;;;1.85;1.75;;;15.00;99.90;;;;;;5092677;28;20040;-73
2023/05/12 07:06:19;;;;;;;1.13;1.00;;;12.60;99.90;;;;;;5092525;28;20496;-73
2023/05/12 07:08:45;;;;;;;4.03;1.63;;;14.80;99.90;;;;;;5092603;28;20154;-72
2023/05/12 07:11:10;;;;;;;;;;;13.00;99.90;;;;;;5093166;28;20075;-74
2023/05/12 07:13:37;;;;;;;1.70;1.60;;;13.40;99.90;;;;;;5092734;28;19924;-75
2023/05/12 07:16:03;;;;;;;1.60;1.38;;;13.00;99.90;;;;;;5092549;28;20047;-74
2023/05/12 07:18:29;;;;;;;1.25;1.15;;;13.30;99.90;;;;;;5092444;28;20054;-72
2023/05/12 07:20:55;;;;;;;3.35;2.35;;;13.50;99.90;;;;;;5092445;28;20048;-73
2023/05/12 07:23:20;;;;;;;;;;;14.20;99.90;;;;;;5092679;28;20122;-73
2023/05/12 07:25:46;;;;;;;8.57;2.65;;;13.90;99.90;;;;;;5092563;28;19969;-73
2023/05/12 07:28:12;;;;;;;;;;;15.20;99.90;;;;;;5092827;28;20087;-70
2023/05/12 07:30:38;;;;;;;4.03;3.40;;;14.10;99.90;;;;;;5092409;28;19982;-73
2023/05/12 07:33:04;;;;;;;3.25;2.92;;;14.00;99.90;;;;;;5090942;28;20084;-72
2023/05/12 07:35:30;;;;;;;4.75;2.25;;;15.50;99.90;;;;;;5092177;28;20089;-72
2023/05/12 07:37:56;;;;;;;2.17;1.92;;;14.50;99.90;;;;;;5092137;28;20047;-73
2023/05/12 07:40:21;;;;;;;;;;;15.10;99.90;;;;;;5091476;28;20377;-73
2023/05/12 07:42:47;;;;;;;3.50;2.85;;;15.90;99.90;;;;;;5091925;28;19935;-72
2023/05/12 07:45:13;;;;;;;;;;;14.10;99.90;;;;;;5092569;28;20055;-71
2023/05/12 07:47:39;;;;;;;4.80;2.50;;;15.90;99.90;;;;;;5092147;28;20010;-73
2023/05/12 07:50:05;;;;;;;;;;;15.10;99.90;;;;;;5092502;28;20056;-73
2023/05/12 07:52:32;;;;;;;4.32;3.30;;;15.50;99.90;;;;;;5091787;28;19920;-73
2023/05/12 07:54:58;;;;;;;;;;;15.40;99.90;;;;;;5092566;28;20056;-72
2023/05/12 07:57:24;;;;;;;5.43;2.38;;;14.40;99.90;;;;;;5092111;28;20405;-73
2023/05/12 07:59:50;;;;;;;;;;;15.10;99.90;;;;;;5092296;28;20561;-73
2023/05/12 08:02:16;;;;;;;5.88;3.47;;;15.20;99.90;;;;;;5074034;28;19967;-72
2023/05/12 08:04:42;;;;;;;;;;;15.30;99.90;;;;;;5092329;28;20048;-73
2023/05/12 08:07:07;;;;;;;6.93;2.65;;;15.50;99.90;;;;;;5091882;28;20419;-73
2023/05/12 08:09:33;;;;;;;;;;;15.50;99.90;;;;;;5092495;28;20051;-74
2023/05/12 08:12:00;;;;;;;2.28;1.90;;;15.40;99.90;;;;;;5091913;28;19924;-71
2023/05/12 08:14:26;;;;;;;2.75;2.53;;;15.50;99.90;;;;;;5091998;28;20059;-71
2023/05/12 08:16:51;;;;;;;;;;;14.10;99.90;;;;;;5092337;28;20048;-72
2023/05/12 08:19:17;;;;;;;12.52;2.75;;;14.40;99.90;;;;;;5091912;28;19963;-72
2023/05/12 08:21:42;;;;;;;;;;;14.30;99.90;;;;;;5091409;28;20506;-72
2023/05/12 08:24:08;;;;;;;2.42;1.40;;;16.00;99.90;;;;;;5092079;28;19924;-74
2023/05/12 08:26:34;;;;;;;;;;;14.20;99.90;;;;;;5092256;28;20044;-71
2023/05/12 08:29:00;;;;;;;2.17;1.98;;;15.40;99.90;;;;;;5091660;28;19924;-75
2023/05/12 08:31:26;;;;;;;3.67;2.92;;;15.60;99.90;;;;;;5090630;28;20094;-76
2023/05/12 08:33:52;;;;;;;;;;;15.20;99.90;;;;;;5092104;28;20052;-72
2023/05/12 08:36:17;;;;;;;3.75;1.92;;;15.80;99.90;;;;;;5091544;28;19920;-71
2023/05/12 08:38:43;;;;;;;;;;;16.00;99.90;;;;;;5092273;28;20040;-76
2023/05/12 08:41:18;;;;;;;2.70;2.05;;;16.40;99.90;;;;;;5091666;28;19943;-70
2023/05/12 08:43:51;;;;;;;1.73;1.60;;;15.20;99.90;;;;;;5091634;28;20040;-71
2023/05/12 08:46:17;;;;;;;3.75;1.63;;;16.60;99.90;;;;;;5091524;28;20052;-71
2023/05/12 08:48:48;;;;;;;;;;;16.40;99.90;;;;;;5091828;28;20040;-75
2023/05/12 08:51:16;;;;;;;3.65;2.65;;;16.00;99.90;;;;;;5091257;28;20418;-73
2023/05/12 08:53:43;;;;;;;3.03;2.28;;;14.40;99.90;;;;;;5090585;28;20056;-72
2023/05/12 08:56:10;;;;;;;2.47;2.28;;;17.10;99.90;;;;;;5095228;28;20071;-73
2023/05/12 08:58:36;;;;;;;6.88;2.63;;;17.10;99.90;;;;;;5094092;28;20063;-73
2023/05/12 09:01:06;;;;;;;;;;;16.80;99.90;;;;;;5095472;28;20044;-72
2023/05/12 09:03:35;;;;;;;2.08;1.65;;;17.50;99.90;;;;;;5095335;28;19926;-74
2023/05/12 09:06:02;;;;;;;3.08;2.55;;;16.60;99.90;;;;;;5095138;28;20087;-70
2023/05/12 09:08:33;;;;;;;2.72;2.00;;;16.80;99.90;;;;;;5095116;28;20052;-73
2023/05/12 09:11:00;;;;;;;2.47;2.25;;;17.30;99.90;;;;;;5093953;28;20052;-72
2023/05/12 09:13:49;;;;;;;2.05;1.85;;;17.70;99.90;;;;;;5094933;28;20109;-75
2023/05/12 09:16:21;;;;;;;4.55;3.08;;;18.10;99.90;;;;;;5095035;28;20048;-72
2023/05/12 09:18:55;;;;;;;3.35;3.05;;;17.70;99.90;;;;;;5093954;28;20504;-75
2023/05/12 09:21:20;;;;;;;2.60;2.40;;;18.00;99.90;;;;;;5094737;28;20385;-73
2023/05/12 09:23:56;;;;;;;6.20;2.25;;;17.70;99.90;;;;;;5094688;28;20051;-72
2023/05/12 09:26:23;;;;;;;5.33;3.73;;;18.50;99.90;;;;;;5094575;28;20469;-72
2023/05/12 09:28:49;;;;;;;2.90;1.77;;;18.80;99.90;;;;;;5094723;28;20060;-71
2023/05/12 09:31:17;;;;;;;4.63;3.35;;;18.70;99.90;;;;;;5093492;28;20047;-73
2023/05/12 09:33:43;;;;;;;3.92;0.70;;;18.10;99.90;;;;;;5093260;28;20376;-73
2023/05/12 09:36:08;;;;;;;2.15;1.42;;;18.90;99.90;;;;;;5094556;28;20067;-72
2023/05/12 09:38:34;;;;;;;1.85;1.70;;;18.50;99.90;;;;;;5094322;28;20051;-76
2023/05/12 09:41:00;;;;;;;1.58;1.38;;;18.80;99.90;;;;;;5093293;28;20040;-71
2023/05/12 09:43:26;;;;;;;10.20;3.33;;;18.70;99.90;;;;;;5094587;28;20176;-72
2023/05/12 09:45:54;;;;;;;5.03;2.88;;;18.80;99.90;;;;;;5094428;28;20427;-74
2023/05/12 09:48:20;;;;;;;1.58;1.48;;;19.30;99.90;;;;;;5094361;28;20396;-74
2023/05/12 09:50:51;;;;;;;2.83;2.40;;;19.10;99.90;;;;;;5094284;28;20133;-74
2023/05/12 09:53:19;;;;;;;1.85;1.75;;;18.70;99.90;;;;;;5093877;28;20087;-72
2023/05/12 09:55:48;;;;;;;0.95;0.95;;;18.20;99.90;;;;;;5094380;28;20732;-76
2023/05/12 09:58:15;;;;;;;6.25;1.50;;;18.70;99.90;;;;;;5094162;28;20050;-74
2023/05/12 10:00:42;;;;;;;9.23;2.95;;;18.90;99.90;;;;;;5094180;28;20052;-75
2023/05/12 10:03:15;;;;;;;2.50;2.25;;;19.20;99.90;;;;;;5094035;28;20044;-75
2023/05/12 10:05:46;;;;;;;3.55;1.92;;;19.30;99.90;;;;;;5093808;28;20047;-75
2023/05/12 10:08:19;;;;;;;3.00;2.28;;;18.90;99.90;;;;;;5094218;28;20130;-72
2023/05/12 10:10:49;;;;;;;2.03;1.88;;;19.20;99.90;;;;;;5094123;28;20044;-73
2023/05/12 10:13:15;;;;;;;2.50;1.77;;;19.30;99.90;;;;;;5093946;28;20048;-76
2023/05/12 10:15:42;;;;;;;3.38;1.48;;;19.50;99.90;;;;;;5075955;28;20073;-76
2023/05/12 10:18:09;;;;;;;2.00;0.82;;;20.00;99.90;;;;;;5094043;28;20051;-69
2023/05/12 10:20:35;;;;;;;2.10;1.90;;;19.50;99.90;;;;;;5093692;28;20460;-74
2023/05/12 10:23:02;;;;;;;0.70;0.57;;;20.00;99.90;;;;;;5093863;28;20092;-75
2023/05/12 10:25:29;;;;;;;2.03;1.60;;;20.10;99.90;;;;;;5093688;28;20056;-78
2023/05/12 10:27:56;;;;;;;2.70;1.30;;;20.10;99.90;;;;;;5092645;28;20052;-70
2023/05/12 10:30:22;;;;;;;2.30;1.63;;;20.20;99.90;;;;;;5093532;28;20048;-73
2023/05/12 10:32:49;;;;;;;0.73;0.73;;;20.40;99.90;;;;;;5092095;28;20437;-73
2023/05/12 10:35:15;;;;;;;1.98;1.77;;;20.30;99.90;;;;;;5093188;28;20083;-68
2023/05/12 10:37:41;;;;;;;1.33;1.23;;;20.50;99.90;;;;;;5093473;28;20055;-77
2023/05/12 10:40:09;;;;;;;1.75;1.65;;;20.00;99.90;;;;;;5092168;28;20062;-74
2023/05/12 10:42:41;;;;;;;1.42;1.20;;;20.90;99.90;;;;;;5093354;28;20389;-72
2023/05/12 10:45:18;;;;;;;2.15;2.03;;;20.50;99.90;;;;;;5093194;28;20063;-71
2023/05/12 10:47:45;;;;;;;1.35;1.10;;;20.30;99.90;;;;;;5093072;28;20048;-75
2023/05/12 10:50:14;;;;;;;0.82;0.75;;;20.60;99.90;;;;;;5093290;28;20083;-74
2023/05/12 10:52:55;;;;;;;1.50;1.40;;;20.70;99.90;;;;;;5092959;28;20098;-73
2023/05/12 10:55:40;;;;;;;1.02;0.80;;;20.50;99.90;;;;;;5093050;28;20109;-71
2023/05/12 10:58:10;;;;;;;5.72;1.50;;;20.50;99.90;;;;;;5092923;28;20055;-73
2023/05/12 11:00:44;;;;;;;3.50;2.78;;;20.30;99.90;;;;;;5093065;28;20040;-71
2023/05/12 11:03:15;;;;;;;1.15;1.02;;;20.70;99.90;;;;;;5092947;28;20051;-67
2023/05/12 11:05:43;;;;;;;1.25;0.80;;;20.80;99.90;;;;;;5092903;28;20048;-72
2023/05/12 11:08:09;;;;;;;2.13;1.88;;;20.50;99.90;;;;;;5092824;28;20052;-71
2023/05/12 11:10:34;;;;;;;1.23;1.15;;;20.80;99.90;;;;;;5092615;28;20134;-72
2023/05/12 11:13:02;;;;;;;5.55;2.35;;;20.80;99.90;;;;;;5092772;28;20040;-66
2023/05/12 11:15:29;;;;;;;2.78;2.03;;;20.90;99.90;;;;;;5092701;28;20060;-77
2023/05/12 11:17:54;;;;;;;1.60;1.50;;;20.80;99.90;;;;;;5090880;28;20087;-71
2023/05/12 11:20:24;;;;;;;1.17;1.05;;;20.80;99.90;;;;;;5092588;28;20129;-74
2023/05/12 11:22:50;;;;;;;0.90;0.90;;;21.20;99.90;;;;;;5092452;28;20044;-73
2023/05/12 11:25:16;;;;;;;1.65;1.48;;;21.10;99.90;;;;;;5092352;28;20048;-72
2023/05/12 11:27:47;;;;;;;1.50;1.40;;;20.90;99.90;;;;;;5092674;28;20048;-73
2023/05/12 11:30:13;;;;;;;1.27;1.17;;;21.20;99.90;;;;;;5092528;28;20051;-67
2023/05/12 11:32:39;;;;;;;2.42;1.45;;;21.30;99.90;;;;;;5092187;28;20032;-73
2023/05/12 11:35:16;;;;;;;1.42;0.95;;;21.30;99.90;;;;;;5092315;28;20166;-72
2023/05/12 11:37:43;;;;;;;2.53;1.75;;;21.50;99.90;;;;;;5092266;28;20094;-69
2023/05/12 11:40:14;;;;;;;1.40;1.20;;;21.10;99.90;;;;;;5092404;28;20048;-71
2023/05/12 11:42:41;;;;;;;1.15;1.05;;;21.10;99.90;;;;;;5092286;28;20055;-70
2023/05/12 11:45:18;;;;;;;3.42;1.75;;;21.30;99.90;;;;;;5091138;28;20048;-73
2023/05/12 11:47:44;;;;;;;1.30;1.20;;;21.50;99.90;;;;;;5092208;28;20048;-73
2023/05/12 11:50:10;;;;;;;0.75;0.68;;;21.40;99.90;;;;;;5090722;28;20040;-74
2023/05/12 11:52:35;;;;;;;1.90;1.55;;;21.50;99.90;;;;;;5092073;28;20205;-70
2023/05/12 11:55:04;;;;;;;0.98;0.98;;;21.50;99.90;;;;;;5092319;28;20076;-71
2023/05/12 11:57:32;;;;;;;0.43;0.43;;;21.60;99.90;;;;;;5092133;28;20043;-70
2023/05/12 12:00:00;;;;;;;2.25;1.10;;;21.30;99.90;;;;;;5092073;28;20051;-71
2023/05/12 12:02:26;;;;;;;0.65;0.55;;;21.90;99.90;;;;;;5091973;28;20040;-76
2023/05/12 12:04:52;;;;;;;0.65;0.63;;;21.50;99.90;;;;;;5091949;28;20048;-70
2023/05/12 12:07:34;;;;;;;1.33;1.00;;;21.30;99.90;;;;;;5092039;28;20094;-73
2023/05/12 12:10:17;;;;;;;0.65;0.65;;;21.40;99.90;;;;;;5091962;28;20032;-71
2023/05/12 12:12:43;;;;;;;0.95;0.73;;;21.70;99.90;;;;;;5091947;28;20036;-69
2023/05/12 12:15:10;;;;;;;1.02;1.02;;;21.50;99.90;;;;;;5092145;28;20055;-73
2023/05/12 12:17:36;;;;;;;1.17;1.08;;;21.40;99.90;;;;;;5092196;28;20079;-70
2023/05/12 12:20:02;;;;;;;1.38;1.17;;;21.70;99.90;;;;;;5091992;28;20148;-72
2023/05/12 12:22:32;;;;;;;0.52;0.52;;;21.70;99.90;;;;;;5074081;28;20054;-70
2023/05/12 12:24:58;;;;;;;4.05;1.33;;;21.50;99.90;;;;;;5092017;28;20055;-73
2023/05/12 12:27:24;;;;;;;0.70;0.70;;;21.90;99.90;;;;;;5091763;28;20484;-71
2023/05/12 12:29:50;;;;;;;0.70;0.70;;;21.50;99.90;;;;;;5095264;28;20054;-71
2023/05/12 12:32:16;;;;;;;1.63;1.52;;;21.30;99.90;;;;;;5095816;28;20043;-69
2023/05/12 12:34:43;;;;;;;0.93;0.93;;;21.00;99.90;;;;;;5095781;28;20488;-72
2023/05/12 12:37:10;;;;;;;2.00;1.45;;;21.40;99.90;;;;;;5095707;28;20073;-70
2023/05/12 12:39:35;;;;;;;0.30;0.30;;;20.90;99.90;;;;;;5095710;28;20054;-71
2023/05/12 12:42:01;;;;;;;0.65;0.65;;;20.60;99.90;;;;;;5095552;28;20044;-73
2023/05/12 12:44:28;;;;;;;0.65;0.65;;;20.50;99.90;;;;;;5094373;28;20495;-72
2023/05/12 12:46:53;;;;;;;1.05;0.95;;;20.60;99.90;;;;;;5095676;28;20048;-73
2023/05/12 12:49:19;;;;;;;1.02;0.95;;;20.40;99.90;;;;;;5095570;28;20555;-70
2023/05/12 12:51:45;;;;;;;0.57;0.55;;;20.80;99.90;;;;;;5094102;28;20056;-71